Aeroporto :
LOGIN :

Iscrizione | Disclaimer

   EN    FR    IT 

 










Sommario :    VFR   VFR Marginale   IFR   IFR Intensivo   IFR Molto Intensivo
Visibilità : 
Base nubi : 
>= 8 km
>= 3000ft
5 / 8 km
1000 / 3000 ft
1500m / 5 km
500 / 1000 ft
800 / 1500m
200 / 500 ft
< 800m
< 200 ft
Simboli :   Temporali  Nebbia  Neve Forte  Precipitazioni Forti  Vento > 20 kt
SIGMETs :   Varie  Temporali  Ghiacco  Turbolenza  Onda orograficha  Ceneri Vulcaniche






- Altitudine del aeroporto : 1233 ft
- Codice IATA : OSD


ESNZ - Östersund

ULTIMO METAR :
  • 241120Z 31011KT 9999 SCT026 M01/M06 Q0999

METARs OBSOLETI :
  • 241050Z 30012KT 9999 FEW026 SCT040 M01/M05 Q0998
  • 241020Z 29011KT 9999 FEW023 M02/M05 Q0998
  • 240950Z 29012KT 9999 FEW022 M02/M05 Q0998
  • 240920Z 30011KT 9999 FEW023 M02/M05 Q0997
  • 240850Z 31010KT 9999 SCT024 M02/M05 Q0997

TAF TAF ESNZ
Valido dal 24 a 09 ore il 24 a 18 ore UTC


240830Z 2409/2418 28010KT 9999 SCT020
BECMG 2415/2418 22006KT



MetMap, La meteo Aeronautica in un colpo d'occhio ! - Copyright ORBIFLY Dicembre 2007 - Disclaimer

ORBIFLY MET'MAP TEAM :

Programmazione e sviluppo : Alexandra Zaïnal
Concezione : Baudouin d'Aumeries
Aiuto per la programmazione : Marc-Olivier Méhu
Supporto tecnico e logistico : Manuel Goepfert
Aiuto per la traduzione : Arnaldo La Scala

Contatto : metmap@orbifly.com




FONTI E CREDITI :

   NOAA